Tabor, Czech Republic
Current Conditions -  °F | °C
As of 11:00 PM on Thursday 27 Nov 2014 (Local Time) from LKCV Reporting Station
Overcast Overcast  
Wind Chill: 30°   Ceiling: 2000
Heat Index: 37°   Visibility: 6mi
Dew Point: 32°   Wind: 10mph
Humidity: 81%   Direction: 120°ESE
Pressure: 30"   Gusts: NA
Location:  49.42°N, 14.66°E
Report Text: LKCV 272100Z 12009KT 9999 OVC020 03/00 Q1016 NOSIG
Loading
Personal Weather Stations






























Interactive Weather Map New forecast layout! Learn more

10-Day Weather Forecast

Advertisements
Track Severe Weather on mobile